sensor_id;sensor_type;location;lat;lon;timestamp;P1;durP1;ratioP1;P2;durP2;ratioP2
9224;SDS011;4647;48.072;11.616;2023-04-25T00:00:05;3.43;;;2.30;;
9224;SDS011;4647;48.072;11.616;2023-04-25T00:02:35;5.20;;;2.40;;
9224;SDS011;4647;48.072;11.616;2023-04-25T00:05:06;4.33;;;2.50;;
9224;SDS011;4647;48.072;11.616;2023-04-25T00:07:40;3.50;;;2.60;;
9224;SDS011;4647;48.072;11.616;2023-04-25T00:10:12;2.90;;;2.50;;
9224;SDS011;4647;48.072;11.616;2023-04-25T00:12:40;3.47;;;2.27;;
9224;SDS011;4647;48.072;11.616;2023-04-25T00:15:09;2.83;;;2.40;;
9224;SDS011;4647;48.072;11.616;2023-04-25T00:17:39;3.03;;;2.47;;
9224;SDS011;4647;48.072;11.616;2023-04-25T00:20:08;3.20;;;2.40;;
9224;SDS011;4647;48.072;11.616;2023-04-25T00:22:37;3.87;;;2.63;;
9224;SDS011;4647;48.072;11.616;2023-04-25T00:25:06;3.47;;;2.50;;
9224;SDS011;4647;48.072;11.616;2023-04-25T00:27:37;4.23;;;2.60;;
9224;SDS011;4647;48.072;11.616;2023-04-25T00:30:07;2.90;;;2.60;;
9224;SDS011;4647;48.072;11.616;2023-04-25T00:32:36;2.90;;;2.67;;
9224;SDS011;4647;48.072;11.616;2023-04-25T00:35:05;2.70;;;2.23;;
9224;SDS011;4647;48.072;11.616;2023-04-25T00:37:33;3.80;;;2.40;;
9224;SDS011;4647;48.072;11.616;2023-04-25T00:40:02;3.47;;;2.20;;
9224;SDS011;4647;48.072;11.616;2023-04-25T00:42:38;2.97;;;2.67;;
9224;SDS011;4647;48.072;11.616;2023-04-25T00:45:07;3.50;;;2.53;;
9224;SDS011;4647;48.072;11.616;2023-04-25T00:47:40;2.90;;;2.23;;
9224;SDS011;4647;48.072;11.616;2023-04-25T00:50:09;2.73;;;2.20;;
9224;SDS011;4647;48.072;11.616;2023-04-25T00:52:37;3.53;;;2.30;;
9224;SDS011;4647;48.072;11.616;2023-04-25T00:55:08;3.50;;;2.40;;
9224;SDS011;4647;48.072;11.616;2023-04-25T00:57:41;3.37;;;2.17;;
9224;SDS011;4647;48.072;11.616;2023-04-25T01:00:10;5.33;;;2.27;;
9224;SDS011;4647;48.072;11.616;2023-04-25T01:02:39;2.87;;;2.47;;
9224;SDS011;4647;48.072;11.616;2023-04-25T01:05:09;2.60;;;2.40;;
9224;SDS011;4647;48.072;11.616;2023-04-25T01:07:38;3.77;;;2.40;;
9224;SDS011;4647;48.072;11.616;2023-04-25T01:10:07;3.27;;;2.40;;
9224;SDS011;4647;48.072;11.616;2023-04-25T01:12:36;3.97;;;2.40;;
9224;SDS011;4647;48.072;11.616;2023-04-25T01:15:08;5.27;;;2.53;;
9224;SDS011;4647;48.072;11.616;2023-04-25T01:17:36;2.83;;;2.40;;
9224;SDS011;4647;48.072;11.616;2023-04-25T01:20:07;2.87;;;2.30;;
9224;SDS011;4647;48.072;11.616;2023-04-25T01:22:39;3.03;;;2.13;;
9224;SDS011;4647;48.072;11.616;2023-04-25T01:25:08;2.60;;;2.13;;
9224;SDS011;4647;48.072;11.616;2023-04-25T01:27:37;2.73;;;2.40;;
9224;SDS011;4647;48.072;11.616;2023-04-25T01:30:06;6.10;;;2.67;;
9224;SDS011;4647;48.072;11.616;2023-04-25T01:32:35;5.17;;;2.60;;
9224;SDS011;4647;48.072;11.616;2023-04-25T01:35:06;3.07;;;2.67;;
9224;SDS011;4647;48.072;11.616;2023-04-25T01:37:37;3.03;;;2.57;;
9224;SDS011;4647;48.072;11.616;2023-04-25T01:40:09;4.23;;;2.57;;
9224;SDS011;4647;48.072;11.616;2023-04-25T01:42:39;3.00;;;2.50;;
9224;SDS011;4647;48.072;11.616;2023-04-25T01:45:09;2.57;;;2.33;;
9224;SDS011;4647;48.072;11.616;2023-04-25T01:47:39;2.83;;;2.50;;
9224;SDS011;4647;48.072;11.616;2023-04-25T01:50:14;3.50;;;2.70;;
9224;SDS011;4647;48.072;11.616;2023-04-25T01:52:46;5.10;;;2.40;;
9224;SDS011;4647;48.072;11.616;2023-04-25T01:55:16;2.93;;;2.67;;
9224;SDS011;4647;48.072;11.616;2023-04-25T01:57:45;4.03;;;2.50;;
9224;SDS011;4647;48.072;11.616;2023-04-25T02:00:13;5.10;;;2.67;;
9224;SDS011;4647;48.072;11.616;2023-04-25T02:02:42;2.80;;;2.57;;
9224;SDS011;4647;48.072;11.616;2023-04-25T02:05:10;3.97;;;2.40;;
9224;SDS011;4647;48.072;11.616;2023-04-25T02:07:39;2.90;;;2.53;;
9224;SDS011;4647;48.072;11.616;2023-04-25T02:10:11;3.70;;;2.47;;
9224;SDS011;4647;48.072;11.616;2023-04-25T02:12:40;3.43;;;2.70;;
9224;SDS011;4647;48.072;11.616;2023-04-25T02:15:08;3.20;;;2.57;;
9224;SDS011;4647;48.072;11.616;2023-04-25T02:17:37;3.90;;;3.10;;
9224;SDS011;4647;48.072;11.616;2023-04-25T02:20:06;4.23;;;2.60;;
9224;SDS011;4647;48.072;11.616;2023-04-25T02:22:35;3.97;;;2.90;;
9224;SDS011;4647;48.072;11.616;2023-04-25T02:25:03;2.97;;;2.43;;
9224;SDS011;4647;48.072;11.616;2023-04-25T02:27:35;4.13;;;2.50;;
9224;SDS011;4647;48.072;11.616;2023-04-25T02:30:04;5.07;;;2.70;;
9224;SDS011;4647;48.072;11.616;2023-04-25T02:32:34;3.00;;;2.37;;
9224;SDS011;4647;48.072;11.616;2023-04-25T02:35:03;3.03;;;2.43;;
9224;SDS011;4647;48.072;11.616;2023-04-25T02:37:32;4.97;;;2.60;;
9224;SDS011;4647;48.072;11.616;2023-04-25T02:40:01;3.13;;;2.27;;
9224;SDS011;4647;48.072;11.616;2023-04-25T02:42:31;3.57;;;2.93;;
9224;SDS011;4647;48.072;11.616;2023-04-25T02:45:02;3.33;;;2.30;;
9224;SDS011;4647;48.072;11.616;2023-04-25T02:47:31;4.07;;;2.67;;
9224;SDS011;4647;48.072;11.616;2023-04-25T02:49:59;3.67;;;2.70;;
9224;SDS011;4647;48.072;11.616;2023-04-25T02:52:28;3.00;;;2.40;;
9224;SDS011;4647;48.072;11.616;2023-04-25T02:54:56;3.90;;;2.53;;
9224;SDS011;4647;48.072;11.616;2023-04-25T02:57:25;4.10;;;2.40;;
9224;SDS011;4647;48.072;11.616;2023-04-25T02:59:53;3.63;;;2.37;;
9224;SDS011;4647;48.072;11.616;2023-04-25T03:02:24;3.07;;;2.57;;
9224;SDS011;4647;48.072;11.616;2023-04-25T03:04:53;3.77;;;2.53;;
9224;SDS011;4647;48.072;11.616;2023-04-25T03:07:21;3.57;;;2.67;;
9224;SDS011;4647;48.072;11.616;2023-04-25T03:09:50;4.10;;;2.37;;
9224;SDS011;4647;48.072;11.616;2023-04-25T03:12:18;3.03;;;2.73;;
9224;SDS011;4647;48.072;11.616;2023-04-25T03:14:47;4.07;;;2.60;;
9224;SDS011;4647;48.072;11.616;2023-04-25T03:17:15;4.40;;;2.60;;
9224;SDS011;4647;48.072;11.616;2023-04-25T03:19:46;4.97;;;2.70;;
9224;SDS011;4647;48.072;11.616;2023-04-25T03:22:14;4.80;;;2.83;;
9224;SDS011;4647;48.072;11.616;2023-04-25T03:24:43;5.23;;;3.00;;
9224;SDS011;4647;48.072;11.616;2023-04-25T03:27:12;4.20;;;2.53;;
9224;SDS011;4647;48.072;11.616;2023-04-25T03:29:40;6.20;;;2.90;;
9224;SDS011;4647;48.072;11.616;2023-04-25T03:32:08;4.00;;;2.87;;
9224;SDS011;4647;48.072;11.616;2023-04-25T03:34:37;4.17;;;3.17;;
9224;SDS011;4647;48.072;11.616;2023-04-25T03:37:08;5.80;;;3.03;;
9224;SDS011;4647;48.072;11.616;2023-04-25T03:39:36;4.67;;;2.83;;
9224;SDS011;4647;48.072;11.616;2023-04-25T03:42:05;6.57;;;2.97;;
9224;SDS011;4647;48.072;11.616;2023-04-25T03:44:34;7.37;;;2.93;;
9224;SDS011;4647;48.072;11.616;2023-04-25T03:47:02;3.90;;;2.60;;
9224;SDS011;4647;48.072;11.616;2023-04-25T03:49:31;3.70;;;2.63;;
9224;SDS011;4647;48.072;11.616;2023-04-25T03:52:00;5.13;;;2.80;;
9224;SDS011;4647;48.072;11.616;2023-04-25T03:54:31;4.30;;;2.80;;
9224;SDS011;4647;48.072;11.616;2023-04-25T03:57:00;3.63;;;3.23;;
9224;SDS011;4647;48.072;11.616;2023-04-25T03:59:29;3.23;;;2.37;;
9224;SDS011;4647;48.072;11.616;2023-04-25T04:01:57;5.63;;;2.77;;
9224;SDS011;4647;48.072;11.616;2023-04-25T04:04:25;5.10;;;2.90;;
9224;SDS011;4647;48.072;11.616;2023-04-25T04:06:54;4.27;;;2.60;;
9224;SDS011;4647;48.072;11.616;2023-04-25T04:09:22;3.90;;;2.70;;
9224;SDS011;4647;48.072;11.616;2023-04-25T04:11:55;3.00;;;2.70;;
9224;SDS011;4647;48.072;11.616;2023-04-25T04:14:23;4.40;;;2.67;;
9224;SDS011;4647;48.072;11.616;2023-04-25T04:16:51;6.10;;;2.77;;
9224;SDS011;4647;48.072;11.616;2023-04-25T04:19:20;4.67;;;2.40;;
9224;SDS011;4647;48.072;11.616;2023-04-25T04:21:48;4.77;;;2.57;;
9224;SDS011;4647;48.072;11.616;2023-04-25T04:24:16;3.80;;;2.67;;
9224;SDS011;4647;48.072;11.616;2023-04-25T04:26:45;5.47;;;3.00;;
9224;SDS011;4647;48.072;11.616;2023-04-25T04:29:16;6.07;;;3.10;;
9224;SDS011;4647;48.072;11.616;2023-04-25T04:31:46;3.33;;;2.60;;
9224;SDS011;4647;48.072;11.616;2023-04-25T04:34:15;3.53;;;2.60;;
9224;SDS011;4647;48.072;11.616;2023-04-25T04:36:45;8.33;;;5.00;;
9224;SDS011;4647;48.072;11.616;2023-04-25T04:39:14;20.47;;;10.73;;
9224;SDS011;4647;48.072;11.616;2023-04-25T04:41:42;12.33;;;6.30;;
9224;SDS011;4647;48.072;11.616;2023-04-25T04:44:10;25.83;;;11.70;;
9224;SDS011;4647;48.072;11.616;2023-04-25T04:46:42;9.60;;;4.97;;
9224;SDS011;4647;48.072;11.616;2023-04-25T04:49:11;4.60;;;2.97;;
9224;SDS011;4647;48.072;11.616;2023-04-25T04:51:40;5.17;;;2.83;;
9224;SDS011;4647;48.072;11.616;2023-04-25T04:54:09;4.70;;;2.77;;
9224;SDS011;4647;48.072;11.616;2023-04-25T04:56:38;4.13;;;2.63;;
9224;SDS011;4647;48.072;11.616;2023-04-25T04:59:06;4.47;;;2.50;;
9224;SDS011;4647;48.072;11.616;2023-04-25T05:01:36;3.57;;;2.40;;
9224;SDS011;4647;48.072;11.616;2023-04-25T05:04:08;3.33;;;2.63;;
9224;SDS011;4647;48.072;11.616;2023-04-25T05:06:36;4.47;;;2.67;;
9224;SDS011;4647;48.072;11.616;2023-04-25T05:09:05;3.30;;;3.00;;
9224;SDS011;4647;48.072;11.616;2023-04-25T05:11:33;4.70;;;2.97;;
9224;SDS011;4647;48.072;11.616;2023-04-25T05:14:02;5.70;;;2.80;;
9224;SDS011;4647;48.072;11.616;2023-04-25T05:16:30;3.60;;;2.50;;
9224;SDS011;4647;48.072;11.616;2023-04-25T05:19:00;4.67;;;2.80;;
9224;SDS011;4647;48.072;11.616;2023-04-25T05:21:31;4.67;;;2.80;;
9224;SDS011;4647;48.072;11.616;2023-04-25T05:23:59;5.40;;;2.70;;
9224;SDS011;4647;48.072;11.616;2023-04-25T05:26:27;4.37;;;2.77;;
9224;SDS011;4647;48.072;11.616;2023-04-25T05:28:56;6.50;;;2.70;;
9224;SDS011;4647;48.072;11.616;2023-04-25T05:31:24;5.40;;;2.80;;
9224;SDS011;4647;48.072;11.616;2023-04-25T05:33:53;5.77;;;3.10;;
9224;SDS011;4647;48.072;11.616;2023-04-25T05:36:22;4.87;;;2.70;;
9224;SDS011;4647;48.072;11.616;2023-04-25T05:38:53;3.67;;;2.60;;
9224;SDS011;4647;48.072;11.616;2023-04-25T05:41:22;4.93;;;2.80;;
9224;SDS011;4647;48.072;11.616;2023-04-25T05:43:50;3.53;;;2.80;;
9224;SDS011;4647;48.072;11.616;2023-04-25T05:46:18;3.60;;;2.80;;
9224;SDS011;4647;48.072;11.616;2023-04-25T05:48:47;6.53;;;2.77;;
9224;SDS011;4647;48.072;11.616;2023-04-25T05:51:15;5.50;;;3.00;;
9224;SDS011;4647;48.072;11.616;2023-04-25T05:53:44;5.27;;;2.60;;
9224;SDS011;4647;48.072;11.616;2023-04-25T05:56:15;5.43;;;3.03;;
9224;SDS011;4647;48.072;11.616;2023-04-25T05:58:44;5.20;;;2.97;;
9224;SDS011;4647;48.072;11.616;2023-04-25T06:01:12;5.97;;;3.07;;
9224;SDS011;4647;48.072;11.616;2023-04-25T06:03:41;4.03;;;2.90;;
9224;SDS011;4647;48.072;11.616;2023-04-25T06:06:10;3.67;;;2.87;;
9224;SDS011;4647;48.072;11.616;2023-04-25T06:08:39;8.97;;;2.73;;
9224;SDS011;4647;48.072;11.616;2023-04-25T06:11:07;4.47;;;2.83;;
9224;SDS011;4647;48.072;11.616;2023-04-25T06:13:38;5.33;;;2.90;;
9224;SDS011;4647;48.072;11.616;2023-04-25T06:16:07;5.33;;;3.13;;
9224;SDS011;4647;48.072;11.616;2023-04-25T06:18:37;4.40;;;2.70;;
9224;SDS011;4647;48.072;11.616;2023-04-25T06:21:09;4.87;;;3.03;;
9224;SDS011;4647;48.072;11.616;2023-04-25T06:23:37;4.50;;;2.87;;
9224;SDS011;4647;48.072;11.616;2023-04-25T06:26:06;3.73;;;2.77;;
9224;SDS011;4647;48.072;11.616;2023-04-25T06:28:34;3.50;;;2.83;;
9224;SDS011;4647;48.072;11.616;2023-04-25T06:31:05;3.97;;;2.97;;
9224;SDS011;4647;48.072;11.616;2023-04-25T06:33:34;4.00;;;3.03;;
9224;SDS011;4647;48.072;11.616;2023-04-25T06:36:02;4.70;;;3.13;;
9224;SDS011;4647;48.072;11.616;2023-04-25T06:38:31;4.90;;;2.93;;
9224;SDS011;4647;48.072;11.616;2023-04-25T06:41:00;3.33;;;2.70;;
9224;SDS011;4647;48.072;11.616;2023-04-25T06:43:28;5.17;;;2.60;;
9224;SDS011;4647;48.072;11.616;2023-04-25T06:45:58;3.80;;;2.70;;
9224;SDS011;4647;48.072;11.616;2023-04-25T06:48:29;4.63;;;2.80;;
9224;SDS011;4647;48.072;11.616;2023-04-25T06:50:58;4.23;;;2.63;;
9224;SDS011;4647;48.072;11.616;2023-04-25T06:53:26;3.37;;;2.53;;
9224;SDS011;4647;48.072;11.616;2023-04-25T06:55:55;4.37;;;2.40;;
9224;SDS011;4647;48.072;11.616;2023-04-25T06:58:23;6.70;;;3.13;;
9224;SDS011;4647;48.072;11.616;2023-04-25T07:00:51;4.73;;;2.87;;
9224;SDS011;4647;48.072;11.616;2023-04-25T07:03:20;5.73;;;2.93;;
9224;SDS011;4647;48.072;11.616;2023-04-25T07:05:51;4.77;;;2.77;;
9224;SDS011;4647;48.072;11.616;2023-04-25T07:08:20;5.63;;;3.10;;
9224;SDS011;4647;48.072;11.616;2023-04-25T07:10:49;5.90;;;3.33;;
9224;SDS011;4647;48.072;11.616;2023-04-25T07:13:17;4.67;;;3.03;;
9224;SDS011;4647;48.072;11.616;2023-04-25T07:15:45;5.27;;;2.60;;
9224;SDS011;4647;48.072;11.616;2023-04-25T07:18:14;3.97;;;2.67;;
9224;SDS011;4647;48.072;11.616;2023-04-25T07:20:43;5.53;;;2.90;;
9224;SDS011;4647;48.072;11.616;2023-04-25T07:23:14;5.63;;;3.23;;
9224;SDS011;4647;48.072;11.616;2023-04-25T07:25:42;4.83;;;2.73;;
9224;SDS011;4647;48.072;11.616;2023-04-25T07:28:10;3.80;;;2.70;;
9224;SDS011;4647;48.072;11.616;2023-04-25T07:30:39;6.07;;;3.00;;
9224;SDS011;4647;48.072;11.616;2023-04-25T07:33:07;7.50;;;3.10;;
9224;SDS011;4647;48.072;11.616;2023-04-25T07:35:35;4.13;;;2.67;;
9224;SDS011;4647;48.072;11.616;2023-04-25T07:38:04;5.23;;;2.93;;
9224;SDS011;4647;48.072;11.616;2023-04-25T07:40:35;6.57;;;3.20;;
9224;SDS011;4647;48.072;11.616;2023-04-25T07:43:04;6.50;;;3.00;;
9224;SDS011;4647;48.072;11.616;2023-04-25T07:45:33;4.17;;;3.07;;
9224;SDS011;4647;48.072;11.616;2023-04-25T07:48:01;6.33;;;3.27;;
9224;SDS011;4647;48.072;11.616;2023-04-25T07:50:30;5.27;;;3.03;;
9224;SDS011;4647;48.072;11.616;2023-04-25T07:52:59;7.73;;;3.10;;
9224;SDS011;4647;48.072;11.616;2023-04-25T07:55:27;5.00;;;3.03;;
9224;SDS011;4647;48.072;11.616;2023-04-25T07:57:58;7.23;;;3.10;;
9224;SDS011;4647;48.072;11.616;2023-04-25T08:00:26;5.33;;;2.70;;
9224;SDS011;4647;48.072;11.616;2023-04-25T08:02:56;5.20;;;2.70;;
9224;SDS011;4647;48.072;11.616;2023-04-25T08:05:24;5.00;;;3.00;;
9224;SDS011;4647;48.072;11.616;2023-04-25T08:07:53;3.73;;;2.47;;
9224;SDS011;4647;48.072;11.616;2023-04-25T08:10:22;4.57;;;2.50;;
9224;SDS011;4647;48.072;11.616;2023-04-25T08:12:50;5.70;;;2.70;;
9224;SDS011;4647;48.072;11.616;2023-04-25T08:15:21;4.77;;;2.70;;
9224;SDS011;4647;48.072;11.616;2023-04-25T08:17:50;3.97;;;2.40;;
9224;SDS011;4647;48.072;11.616;2023-04-25T08:20:18;4.00;;;2.40;;
9224;SDS011;4647;48.072;11.616;2023-04-25T08:22:47;3.50;;;2.30;;
9224;SDS011;4647;48.072;11.616;2023-04-25T08:25:16;5.10;;;2.70;;
9224;SDS011;4647;48.072;11.616;2023-04-25T08:27:44;6.83;;;2.57;;
9224;SDS011;4647;48.072;11.616;2023-04-25T08:30:13;5.47;;;2.10;;
9224;SDS011;4647;48.072;11.616;2023-04-25T08:32:44;4.53;;;2.33;;
9224;SDS011;4647;48.072;11.616;2023-04-25T08:35:12;4.03;;;1.90;;
9224;SDS011;4647;48.072;11.616;2023-04-25T08:37:42;3.17;;;2.30;;
9224;SDS011;4647;48.072;11.616;2023-04-25T08:40:11;3.63;;;2.30;;
9224;SDS011;4647;48.072;11.616;2023-04-25T08:42:41;3.10;;;2.20;;
9224;SDS011;4647;48.072;11.616;2023-04-25T08:45:10;6.33;;;2.40;;
9224;SDS011;4647;48.072;11.616;2023-04-25T08:47:39;2.73;;;2.20;;
9224;SDS011;4647;48.072;11.616;2023-04-25T08:50:10;4.80;;;2.37;;
9224;SDS011;4647;48.072;11.616;2023-04-25T08:52:41;5.67;;;2.40;;
9224;SDS011;4647;48.072;11.616;2023-04-25T08:55:13;5.20;;;2.70;;
9224;SDS011;4647;48.072;11.616;2023-04-25T08:57:42;4.27;;;2.47;;
9224;SDS011;4647;48.072;11.616;2023-04-25T09:00:12;5.07;;;2.30;;
9224;SDS011;4647;48.072;11.616;2023-04-25T09:02:41;4.83;;;2.67;;
9224;SDS011;4647;48.072;11.616;2023-04-25T09:05:13;4.93;;;2.40;;
9224;SDS011;4647;48.072;11.616;2023-04-25T09:07:42;3.80;;;2.50;;
9224;SDS011;4647;48.072;11.616;2023-04-25T09:10:10;4.17;;;2.50;;
9224;SDS011;4647;48.072;11.616;2023-04-25T09:12:39;3.80;;;2.20;;
9224;SDS011;4647;48.072;11.616;2023-04-25T09:15:08;5.27;;;2.67;;
9224;SDS011;4647;48.072;11.616;2023-04-25T09:17:38;5.60;;;2.43;;
9224;SDS011;4647;48.072;11.616;2023-04-25T09:20:11;5.93;;;2.50;;
9224;SDS011;4647;48.072;11.616;2023-04-25T09:22:42;4.20;;;2.03;;
9224;SDS011;4647;48.072;11.616;2023-04-25T09:25:13;4.47;;;1.97;;
9224;SDS011;4647;48.072;11.616;2023-04-25T09:27:51;3.80;;;2.10;;
9224;SDS011;4647;48.072;11.616;2023-04-25T09:30:28;4.33;;;2.00;;
9224;SDS011;4647;48.072;11.616;2023-04-25T09:32:57;3.83;;;1.90;;
9224;SDS011;4647;48.072;11.616;2023-04-25T09:35:38;2.73;;;1.80;;
9224;SDS011;4647;48.072;11.616;2023-04-25T09:38:07;4.60;;;1.93;;
9224;SDS011;4647;48.072;11.616;2023-04-25T09:40:42;5.07;;;2.23;;
9224;SDS011;4647;48.072;11.616;2023-04-25T09:43:18;4.07;;;2.03;;
9224;SDS011;4647;48.072;11.616;2023-04-25T09:45:48;2.80;;;2.07;;
9224;SDS011;4647;48.072;11.616;2023-04-25T09:48:18;4.80;;;2.20;;
9224;SDS011;4647;48.072;11.616;2023-04-25T09:50:52;4.20;;;2.00;;
9224;SDS011;4647;48.072;11.616;2023-04-25T09:53:32;2.87;;;1.80;;
9224;SDS011;4647;48.072;11.616;2023-04-25T09:56:01;5.47;;;2.40;;
9224;SDS011;4647;48.072;11.616;2023-04-25T09:58:32;4.53;;;1.90;;
9224;SDS011;4647;48.072;11.616;2023-04-25T10:01:02;3.37;;;2.20;;
9224;SDS011;4647;48.072;11.616;2023-04-25T10:03:33;5.93;;;2.50;;
9224;SDS011;4647;48.072;11.616;2023-04-25T10:06:06;4.00;;;2.03;;
9224;SDS011;4647;48.072;11.616;2023-04-25T10:08:36;4.87;;;1.87;;
9224;SDS011;4647;48.072;11.616;2023-04-25T10:11:06;2.20;;;1.70;;
9224;SDS011;4647;48.072;11.616;2023-04-25T10:13:35;3.77;;;1.97;;
9224;SDS011;4647;48.072;11.616;2023-04-25T10:16:04;5.40;;;2.10;;
9224;SDS011;4647;48.072;11.616;2023-04-25T10:18:33;2.60;;;2.20;;
9224;SDS011;4647;48.072;11.616;2023-04-25T10:21:05;3.97;;;1.97;;
9224;SDS011;4647;48.072;11.616;2023-04-25T10:23:34;4.53;;;2.00;;
9224;SDS011;4647;48.072;11.616;2023-04-25T10:26:04;2.37;;;1.60;;
9224;SDS011;4647;48.072;11.616;2023-04-25T10:31:23;3.00;;;2.17;;
9224;SDS011;4647;48.072;11.616;2023-04-25T10:33:52;3.43;;;1.90;;
9224;SDS011;4647;48.072;11.616;2023-04-25T10:36:24;3.73;;;2.00;;
9224;SDS011;4647;48.072;11.616;2023-04-25T10:38:54;4.37;;;1.70;;
9224;SDS011;4647;48.072;11.616;2023-04-25T10:41:23;2.57;;;1.80;;
9224;SDS011;4647;48.072;11.616;2023-04-25T10:43:58;3.77;;;2.00;;
9224;SDS011;4647;48.072;11.616;2023-04-25T10:46:29;3.47;;;1.90;;
9224;SDS011;4647;48.072;11.616;2023-04-25T10:49:00;3.70;;;1.90;;
9224;SDS011;4647;48.072;11.616;2023-04-25T10:51:32;5.37;;;1.97;;
9224;SDS011;4647;48.072;11.616;2023-04-25T10:54:02;3.00;;;1.67;;
9224;SDS011;4647;48.072;11.616;2023-04-25T10:56:32;6.60;;;2.10;;
9224;SDS011;4647;48.072;11.616;2023-04-25T10:59:05;2.33;;;1.50;;
9224;SDS011;4647;48.072;11.616;2023-04-25T11:01:38;3.50;;;1.73;;
9224;SDS011;4647;48.072;11.616;2023-04-25T11:04:25;3.07;;;1.63;;
9224;SDS011;4647;48.072;11.616;2023-04-25T11:07:02;2.60;;;1.67;;
9224;SDS011;4647;48.072;11.616;2023-04-25T11:09:36;2.83;;;1.90;;
9224;SDS011;4647;48.072;11.616;2023-04-25T11:12:07;4.37;;;1.70;;
9224;SDS011;4647;48.072;11.616;2023-04-25T11:14:37;3.00;;;1.90;;
9224;SDS011;4647;48.072;11.616;2023-04-25T11:17:06;3.17;;;1.90;;
9224;SDS011;4647;48.072;11.616;2023-04-25T11:19:35;3.23;;;1.80;;
9224;SDS011;4647;48.072;11.616;2023-04-25T11:22:06;2.33;;;1.77;;
9224;SDS011;4647;48.072;11.616;2023-04-25T11:24:35;4.57;;;1.67;;
9224;SDS011;4647;48.072;11.616;2023-04-25T11:27:04;3.00;;;1.80;;
9224;SDS011;4647;48.072;11.616;2023-04-25T11:29:33;2.87;;;2.00;;
9224;SDS011;4647;48.072;11.616;2023-04-25T11:32:02;4.03;;;2.20;;
9224;SDS011;4647;48.072;11.616;2023-04-25T11:34:32;2.70;;;2.13;;
9224;SDS011;4647;48.072;11.616;2023-04-25T11:37:01;2.83;;;1.93;;
9224;SDS011;4647;48.072;11.616;2023-04-25T11:39:33;3.83;;;2.23;;
9224;SDS011;4647;48.072;11.616;2023-04-25T11:42:02;2.53;;;1.70;;
9224;SDS011;4647;48.072;11.616;2023-04-25T11:44:32;2.83;;;2.00;;
9224;SDS011;4647;48.072;11.616;2023-04-25T11:47:01;2.30;;;1.90;;
9224;SDS011;4647;48.072;11.616;2023-04-25T11:49:30;3.10;;;2.33;;
9224;SDS011;4647;48.072;11.616;2023-04-25T11:51:58;3.47;;;2.03;;
9224;SDS011;4647;48.072;11.616;2023-04-25T11:54:27;2.87;;;2.20;;
9224;SDS011;4647;48.072;11.616;2023-04-25T11:56:58;3.33;;;2.27;;
9224;SDS011;4647;48.072;11.616;2023-04-25T11:59:26;3.63;;;2.20;;
9224;SDS011;4647;48.072;11.616;2023-04-25T12:01:55;4.67;;;2.33;;
9224;SDS011;4647;48.072;11.616;2023-04-25T12:04:24;2.67;;;2.03;;
9224;SDS011;4647;48.072;11.616;2023-04-25T12:06:53;3.30;;;2.10;;
9224;SDS011;4647;48.072;11.616;2023-04-25T12:09:27;2.43;;;2.10;;
9224;SDS011;4647;48.072;11.616;2023-04-25T12:12:00;2.40;;;2.00;;
9224;SDS011;4647;48.072;11.616;2023-04-25T12:14:31;2.00;;;1.80;;
9224;SDS011;4647;48.072;11.616;2023-04-25T12:17:03;4.70;;;2.60;;
9224;SDS011;4647;48.072;11.616;2023-04-25T12:19:33;4.20;;;2.23;;
9224;SDS011;4647;48.072;11.616;2023-04-25T12:22:17;3.27;;;2.40;;
9224;SDS011;4647;48.072;11.616;2023-04-25T12:24:47;3.17;;;2.20;;
9224;SDS011;4647;48.072;11.616;2023-04-25T12:27:18;2.27;;;1.90;;
9224;SDS011;4647;48.072;11.616;2023-04-25T12:29:52;3.60;;;1.90;;
9224;SDS011;4647;48.072;11.616;2023-04-25T12:32:22;3.13;;;2.00;;
9224;SDS011;4647;48.072;11.616;2023-04-25T12:34:51;2.00;;;1.80;;
9224;SDS011;4647;48.072;11.616;2023-04-25T12:37:19;2.73;;;1.60;;
9224;SDS011;4647;48.072;11.616;2023-04-25T12:39:48;2.97;;;2.27;;
9224;SDS011;4647;48.072;11.616;2023-04-25T12:42:19;2.70;;;1.80;;
9224;SDS011;4647;48.072;11.616;2023-04-25T12:44:47;1.83;;;1.50;;
9224;SDS011;4647;48.072;11.616;2023-04-25T12:47:16;1.60;;;1.50;;
9224;SDS011;4647;48.072;11.616;2023-04-25T12:49:44;2.07;;;1.83;;
9224;SDS011;4647;48.072;11.616;2023-04-25T12:52:13;2.23;;;1.50;;
9224;SDS011;4647;48.072;11.616;2023-04-25T12:54:42;1.53;;;1.43;;
9224;SDS011;4647;48.072;11.616;2023-04-25T12:57:10;2.13;;;1.50;;
9224;SDS011;4647;48.072;11.616;2023-04-25T12:59:41;1.90;;;1.57;;
9224;SDS011;4647;48.072;11.616;2023-04-25T13:02:10;2.13;;;1.67;;
9224;SDS011;4647;48.072;11.616;2023-04-25T13:04:38;2.00;;;1.37;;
9224;SDS011;4647;48.072;11.616;2023-04-25T13:07:07;1.20;;;1.10;;
9224;SDS011;4647;48.072;11.616;2023-04-25T13:09:35;1.43;;;1.20;;
9224;SDS011;4647;48.072;11.616;2023-04-25T13:12:04;2.00;;;1.20;;
9224;SDS011;4647;48.072;11.616;2023-04-25T13:14:33;2.93;;;1.30;;
9224;SDS011;4647;48.072;11.616;2023-04-25T13:17:04;1.33;;;1.10;;
9224;SDS011;4647;48.072;11.616;2023-04-25T13:19:32;1.30;;;1.20;;
9224;SDS011;4647;48.072;11.616;2023-04-25T13:22:01;2.90;;;1.00;;
9224;SDS011;4647;48.072;11.616;2023-04-25T13:24:29;1.17;;;1.07;;
9224;SDS011;4647;48.072;11.616;2023-04-25T13:26:57;1.93;;;1.13;;
9224;SDS011;4647;48.072;11.616;2023-04-25T13:29:26;1.63;;;1.40;;
9224;SDS011;4647;48.072;11.616;2023-04-25T13:31:54;1.20;;;1.10;;
9224;SDS011;4647;48.072;11.616;2023-04-25T13:34:25;2.73;;;1.30;;
9224;SDS011;4647;48.072;11.616;2023-04-25T13:36:54;1.33;;;1.03;;
9224;SDS011;4647;48.072;11.616;2023-04-25T13:39:22;1.43;;;1.20;;
9224;SDS011;4647;48.072;11.616;2023-04-25T13:41:51;2.63;;;1.30;;
9224;SDS011;4647;48.072;11.616;2023-04-25T13:44:19;2.13;;;1.40;;
9224;SDS011;4647;48.072;11.616;2023-04-25T13:46:47;3.37;;;1.53;;
9224;SDS011;4647;48.072;11.616;2023-04-25T13:49:16;1.93;;;1.40;;
9224;SDS011;4647;48.072;11.616;2023-04-25T13:51:47;1.40;;;1.30;;
9224;SDS011;4647;48.072;11.616;2023-04-25T13:54:15;2.07;;;1.30;;
9224;SDS011;4647;48.072;11.616;2023-04-25T13:56:44;2.17;;;1.20;;
9224;SDS011;4647;48.072;11.616;2023-04-25T13:59:13;1.30;;;1.20;;
9224;SDS011;4647;48.072;11.616;2023-04-25T14:01:42;1.90;;;1.40;;
9224;SDS011;4647;48.072;11.616;2023-04-25T14:04:10;1.33;;;1.23;;
9224;SDS011;4647;48.072;11.616;2023-04-25T14:06:38;2.40;;;1.30;;
9224;SDS011;4647;48.072;11.616;2023-04-25T14:09:10;2.37;;;1.30;;
9224;SDS011;4647;48.072;11.616;2023-04-25T14:11:38;2.20;;;1.20;;
9224;SDS011;4647;48.072;11.616;2023-04-25T14:14:07;1.47;;;1.20;;
9224;SDS011;4647;48.072;11.616;2023-04-25T14:16:37;1.30;;;1.00;;
9224;SDS011;4647;48.072;11.616;2023-04-25T14:19:06;1.73;;;1.13;;
9224;SDS011;4647;48.072;11.616;2023-04-25T14:21:34;1.43;;;1.20;;
9224;SDS011;4647;48.072;11.616;2023-04-25T14:24:02;1.30;;;1.20;;
9224;SDS011;4647;48.072;11.616;2023-04-25T14:26:35;1.27;;;1.10;;
9224;SDS011;4647;48.072;11.616;2023-04-25T14:29:04;1.63;;;1.07;;
9224;SDS011;4647;48.072;11.616;2023-04-25T14:31:34;2.90;;;1.00;;
9224;SDS011;4647;48.072;11.616;2023-04-25T14:34:02;0.97;;;0.90;;
9224;SDS011;4647;48.072;11.616;2023-04-25T14:36:31;1.67;;;1.13;;
9224;SDS011;4647;48.072;11.616;2023-04-25T14:38:59;1.47;;;1.13;;
9224;SDS011;4647;48.072;11.616;2023-04-25T14:41:28;1.13;;;1.00;;
9224;SDS011;4647;48.072;11.616;2023-04-25T14:43:59;2.10;;;1.20;;
9224;SDS011;4647;48.072;11.616;2023-04-25T14:46:27;1.50;;;1.30;;
9224;SDS011;4647;48.072;11.616;2023-04-25T14:48:55;1.27;;;1.10;;
9224;SDS011;4647;48.072;11.616;2023-04-25T14:51:24;1.50;;;1.20;;
9224;SDS011;4647;48.072;11.616;2023-04-25T14:53:53;1.63;;;1.30;;
9224;SDS011;4647;48.072;11.616;2023-04-25T14:56:21;1.43;;;1.33;;
9224;SDS011;4647;48.072;11.616;2023-04-25T14:58:50;2.20;;;1.53;;
9224;SDS011;4647;48.072;11.616;2023-04-25T15:01:22;2.33;;;1.57;;
9224;SDS011;4647;48.072;11.616;2023-04-25T15:03:51;1.87;;;1.30;;
9224;SDS011;4647;48.072;11.616;2023-04-25T15:06:19;1.60;;;1.50;;
9224;SDS011;4647;48.072;11.616;2023-04-25T15:08:48;1.93;;;1.60;;
9224;SDS011;4647;48.072;11.616;2023-04-25T15:11:16;1.10;;;0.97;;
9224;SDS011;4647;48.072;11.616;2023-04-25T15:13:46;1.47;;;0.90;;
9224;SDS011;4647;48.072;11.616;2023-04-25T15:16:14;0.97;;;0.90;;